Terminal Aerodrome Forecast
Issued by NWS Miami, FL

Home | Current Version | Previous Version | Text Only | Print | Product List | Glossary On
Versions: 1 2 3 4 5 6 7 8 9 10 11 12 13 14 15 16 17 18 19 20 21 22 23 24 25 26 27 28 29 30
000
FTUS42 KMFL 211508 AAA
TAFAPF
TAF AMD
KAPF 211508Z 2115/2212 VRB05KT P6SM FEW026 FEW250
     FM211700 29012KT P6SM FEW040 FEW250
     FM220200 VRB04KT P6SM SKC=

USA.gov is the U.S. government's official web portal to all federal, state and local government web resources and services.